Time;durP1;ratioP1;P1;durP2;ratioP2;P2;SDS_P1;SDS_P2;PMS_P1;PMS_P2;Temp;Humidity;BMP_temperature;BMP_pressure;BME280_temperature;BME280_humidity;BME280_pressure;Samples;Min_cycle;Max_cycle;Signal;HPM_P1;HPM_P2
2022/11/05 00:09:48;;;;;;;7.13;2.40;;;7.00;93.50;;;;;;5092109;28;20262;-65
2022/11/05 00:17:44;;;;;;;3.38;2.50;;;6.80;95.30;;;;;;5091952;28;20185;-65
2022/11/05 00:20:14;;;;;;;3.80;3.05;;;6.80;95.70;;;;;;5091563;28;20238;-65
2022/11/05 00:25:29;;;;;;;22.45;17.38;;;6.90;96.10;;;;;;5091335;28;20196;-66
2022/11/05 00:28:01;;;;;;;9.55;6.22;;;7.00;96.10;;;;;;5092409;28;20275;-65
2022/11/05 00:30:29;;;;;;;4.32;3.10;;;7.10;96.10;;;;;;5091569;28;20208;-65
2022/11/05 00:33:02;;;;;;;6.47;2.40;;;7.00;95.80;;;;;;5091585;28;20181;-66
2022/11/05 00:35:29;;;;;;;2.67;1.80;;;7.00;96.00;;;;;;5095122;28;20185;-65
2022/11/05 00:37:58;;;;;;;3.40;2.30;;;7.10;96.10;;;;;;5095806;28;20191;-65
2022/11/05 00:40:25;;;;;;;3.10;1.90;;;7.10;95.90;;;;;;5095056;28;20181;-66
2022/11/05 00:45:38;;;;;;;4.47;2.20;;;7.20;96.20;;;;;;5095137;28;20650;-65
2022/11/05 00:50:51;;;;;;;3.70;2.70;;;7.20;96.40;;;;;;5094852;28;20220;-65
2022/11/05 00:53:19;;;;;;;3.63;2.05;;;7.30;96.40;;;;;;5095473;28;20193;-65
2022/11/05 00:55:47;;;;;;;4.00;2.13;;;7.30;96.40;;;;;;5094958;28;20273;-65
2022/11/05 00:58:16;;;;;;;3.70;2.40;;;7.40;96.60;;;;;;5095258;28;20192;-65
2022/11/05 01:00:48;;;;;;;3.05;2.33;;;7.40;96.70;;;;;;5094538;28;20181;-66
2022/11/05 01:03:17;;;;;;;8.02;2.70;;;7.40;96.90;;;;;;5075052;28;20189;-65
2022/11/05 01:05:46;;;;;;;4.07;2.55;;;7.40;96.90;;;;;;5086865;28;20208;-66
2022/11/05 01:08:15;;;;;;;5.18;2.50;;;7.40;96.80;;;;;;5094923;28;20181;-66
2022/11/05 01:10:45;;;;;;;3.65;2.25;;;7.40;96.60;;;;;;5094682;28;20549;-66
2022/11/05 01:13:14;;;;;;;5.25;2.75;;;7.40;96.60;;;;;;5094584;28;20185;-66
2022/11/05 01:15:41;;;;;;;7.82;4.68;;;7.40;96.60;;;;;;5094515;28;20187;-65
2022/11/05 01:18:08;;;;;;;10.65;5.85;;;7.40;96.50;;;;;;5094872;28;20189;-66
2022/11/05 01:20:36;;;;;;;6.32;3.80;;;7.40;96.30;;;;;;5094607;28;20188;-66
2022/11/05 01:23:03;;;;;;;8.55;3.25;;;7.40;96.40;;;;;;5094392;28;20593;-65
2022/11/05 01:25:30;;;;;;;3.45;2.00;;;7.30;96.70;;;;;;5093743;28;20692;-67
2022/11/05 01:27:59;;;;;;;3.38;2.47;;;7.30;96.90;;;;;;5094624;28;20242;-66
2022/11/05 01:30:26;;;;;;;4.22;2.15;;;7.20;97.00;;;;;;5094178;28;20208;-67
2022/11/05 01:32:53;;;;;;;3.50;2.08;;;7.20;97.40;;;;;;5094455;28;20177;-66
2022/11/05 01:35:20;;;;;;;3.95;2.42;;;7.20;97.60;;;;;;5095119;28;20526;-66
2022/11/05 01:37:48;;;;;;;3.45;2.40;;;7.10;97.90;;;;;;5094374;28;20183;-66
2022/11/05 01:40:19;;;;;;;4.40;2.47;;;7.20;97.80;;;;;;5094096;28;20234;-66
2022/11/05 01:42:46;;;;;;;4.35;2.60;;;7.10;98.20;;;;;;5094158;28;20188;-66
2022/11/05 01:45:24;;;;;;;5.80;2.10;;;7.20;98.50;;;;;;5093991;28;20195;-66
2022/11/05 01:48:04;;;;;;;3.50;1.95;;;7.10;98.20;;;;;;5094225;28;20193;-66
2022/11/05 01:50:40;;;;;;;3.78;2.00;;;7.10;98.40;;;;;;5093990;28;20212;-66
2022/11/05 01:53:25;;;;;;;2.97;2.28;;;7.20;98.60;;;;;;5093657;28;20184;-66
2022/11/05 01:56:02;;;;;;;3.67;2.25;;;7.30;98.70;;;;;;5094004;28;20666;-66
2022/11/05 01:58:33;;;;;;;8.07;2.63;;;7.40;98.60;;;;;;5094063;28;20189;-67
2022/11/05 02:01:02;;;;;;;3.88;2.70;;;7.40;98.50;;;;;;5093344;28;20195;-66
2022/11/05 02:03:30;;;;;;;4.50;2.55;;;7.50;98.40;;;;;;5094085;28;20195;-66
2022/11/05 02:06:00;;;;;;;3.22;2.25;;;7.50;98.40;;;;;;5093680;28;20272;-66
2022/11/05 02:08:42;;;;;;;6.80;2.83;;;7.50;98.00;;;;;;5093800;28;20220;-66
2022/11/05 02:11:16;;;;;;;4.88;2.40;;;7.50;97.90;;;;;;5092750;28;20250;-65
2022/11/05 02:13:43;;;;;;;3.88;2.25;;;7.50;97.90;;;;;;5093495;28;20193;-66
2022/11/05 02:16:18;;;;;;;3.45;2.08;;;7.50;98.00;;;;;;5093195;28;20267;-66
2022/11/05 02:18:54;;;;;;;2.85;1.83;;;7.50;97.90;;;;;;5093524;28;20276;-71
2022/11/05 02:21:59;;;;;;;3.30;1.88;;;7.50;98.00;;;;;;5080550;28;20208;-66
2022/11/05 02:24:56;;;;;;;5.18;2.30;;;7.40;98.00;;;;;;5093235;28;20173;-66
2022/11/05 02:27:59;;;;;;;4.93;2.20;;;7.40;98.30;;;;;;5093281;28;20208;-66
2022/11/05 02:30:43;;;;;;;4.80;3.17;;;7.40;98.20;;;;;;5092814;28;20204;-66
2022/11/05 02:33:22;;;;;;;3.60;2.10;;;7.50;98.50;;;;;;5093391;28;20184;-65
2022/11/05 02:36:19;;;;;;;3.40;2.28;;;7.40;98.50;;;;;;5093287;28;20268;-66
2022/11/05 02:39:01;;;;;;;3.88;2.35;;;7.40;98.70;;;;;;5093351;28;20523;-65
2022/11/05 02:41:39;;;;;;;3.55;2.63;;;7.30;98.60;;;;;;5092480;28;20614;-66
2022/11/05 02:44:22;;;;;;;3.67;1.73;;;7.30;99.00;;;;;;5093046;28;20210;-66
2022/11/05 02:46:57;;;;;;;3.20;2.15;;;7.20;99.10;;;;;;5072939;28;20247;-65
2022/11/05 02:49:35;;;;;;;6.13;3.67;;;7.20;99.60;;;;;;5074443;28;20577;-66
2022/11/05 02:52:06;;;;;;;2.60;1.60;;;7.20;99.90;;;;;;5093065;28;20187;-66
2022/11/05 02:54:37;;;;;;;3.45;1.38;;;7.30;99.80;;;;;;5093067;28;20212;-65
2022/11/05 02:57:05;;;;;;;2.53;1.50;;;7.30;99.70;;;;;;5092091;28;20227;-66
2022/11/05 02:59:32;;;;;;;5.78;1.70;;;7.30;99.70;;;;;;5093010;28;20196;-66
2022/11/05 03:02:03;;;;;;;2.63;1.70;;;7.10;99.90;;;;;;5092536;28;20189;-66
2022/11/05 03:04:32;;;;;;;3.17;1.60;;;7.00;99.90;;;;;;5092520;28;20196;-66
2022/11/05 03:07:19;;;;;;;6.60;2.00;;;7.00;99.90;;;;;;5092742;28;20204;-66
2022/11/05 03:09:59;;;;;;;3.53;1.40;;;7.10;99.90;;;;;;5092310;28;20209;-65
2022/11/05 03:12:33;;;;;;;3.88;1.50;;;7.10;99.90;;;;;;5092943;28;20196;-66
2022/11/05 03:15:15;;;;;;;3.10;1.73;;;7.10;99.90;;;;;;5092346;28;20611;-66
2022/11/05 03:17:58;;;;;;;4.47;1.50;;;7.10;99.90;;;;;;5092682;28;20184;-67
2022/11/05 03:20:36;;;;;;;2.53;1.40;;;7.20;99.90;;;;;;5092388;28;20173;-68
2022/11/05 03:23:12;;;;;;;3.88;1.58;;;7.20;99.90;;;;;;5092690;28;20267;-66
2022/11/05 03:25:43;;;;;;;2.50;1.20;;;7.20;99.90;;;;;;5091869;28;20195;-66
2022/11/05 03:28:12;;;;;;;3.78;1.70;;;7.30;99.90;;;;;;5092906;28;20569;-66
2022/11/05 03:30:41;;;;;;;3.60;1.55;;;7.40;99.90;;;;;;5092016;28;20220;-66
2022/11/05 03:33:17;;;;;;;2.90;1.60;;;7.40;99.90;;;;;;5091966;28;20184;-66
2022/11/05 03:35:48;;;;;;;3.05;1.77;;;7.40;99.90;;;;;;5092055;28;20209;-66
2022/11/05 03:38:21;;;;;;;3.08;1.80;;;7.50;99.90;;;;;;5092589;28;20181;-66
2022/11/05 03:40:52;;;;;;;3.47;1.90;;;7.50;99.90;;;;;;5092151;28;20192;-66
2022/11/05 03:43:23;;;;;;;3.47;1.55;;;7.60;99.90;;;;;;5092556;28;20195;-66
2022/11/05 03:45:57;;;;;;;3.13;1.85;;;7.60;99.90;;;;;;5092403;28;20188;-67
2022/11/05 03:48:29;;;;;;;4.03;2.17;;;7.60;99.90;;;;;;5092367;28;20492;-66
2022/11/05 03:51:01;;;;;;;3.33;2.00;;;7.50;99.90;;;;;;5091844;28;20261;-67
2022/11/05 03:53:32;;;;;;;4.55;1.60;;;7.60;99.90;;;;;;5092387;28;20631;-66
2022/11/05 03:56:02;;;;;;;3.13;1.90;;;7.60;99.90;;;;;;5092085;28;20192;-66
2022/11/05 03:58:30;;;;;;;4.40;1.70;;;7.50;99.90;;;;;;5092382;28;20189;-67
2022/11/05 04:01:03;;;;;;;3.72;2.00;;;7.60;99.90;;;;;;5091812;28;20177;-67
2022/11/05 04:03:35;;;;;;;4.07;2.10;;;7.60;99.90;;;;;;5092463;28;20536;-66
2022/11/05 04:14:18;;;;;;;4.10;1.90;;;7.60;99.90;;;;;;5096415;28;20184;-66
2022/11/05 04:24:57;;;;;;;3.28;1.60;;;7.50;99.90;;;;;;5095752;28;20180;-67
2022/11/05 04:27:24;;;;;;;2.97;1.80;;;7.50;99.90;;;;;;5095880;28;20213;-64
2022/11/05 04:32:35;;;;;;;4.95;2.65;;;7.60;99.90;;;;;;5075664;28;20271;-66
2022/11/05 04:35:05;;;;;;;3.30;2.80;;;7.60;99.90;;;;;;5084800;28;20188;-64
2022/11/05 04:37:32;;;;;;;6.15;2.17;;;7.70;99.90;;;;;;5095849;28;20541;-65
2022/11/05 04:40:00;;;;;;;3.35;2.70;;;7.70;99.90;;;;;;5094815;28;20272;-67
2022/11/05 04:42:30;;;;;;;3.22;2.17;;;7.70;99.90;;;;;;5075414;28;20177;-65
2022/11/05 04:44:57;;;;;;;3.78;2.40;;;7.80;99.90;;;;;;5082444;28;20631;-65
2022/11/05 04:47:33;;;;;;;4.25;3.10;;;7.80;99.90;;;;;;5095788;28;20189;-65
2022/11/05 04:50:01;;;;;;;5.78;4.18;;;7.80;99.90;;;;;;5094682;28;20199;-67
2022/11/05 04:52:29;;;;;;;4.30;3.28;;;7.70;99.90;;;;;;5095367;28;20180;-67
2022/11/05 04:54:57;;;;;;;3.35;2.40;;;7.80;99.90;;;;;;5094811;28;20276;-67
2022/11/05 04:57:24;;;;;;;4.45;3.17;;;7.80;99.90;;;;;;5095350;28;20241;-66
2022/11/05 04:59:53;;;;;;;4.07;2.40;;;7.90;99.90;;;;;;5094989;28;20177;-65
2022/11/05 05:02:21;;;;;;;2.80;2.38;;;8.00;99.90;;;;;;5095456;28;20185;-66
2022/11/05 05:04:48;;;;;;;4.47;2.72;;;8.00;99.90;;;;;;5095225;28;20534;-65
2022/11/05 05:07:15;;;;;;;4.18;2.75;;;8.00;99.90;;;;;;5095215;28;20623;-66
2022/11/05 05:09:44;;;;;;;4.15;2.30;;;8.00;99.90;;;;;;5094618;28;20208;-66
2022/11/05 05:12:12;;;;;;;3.17;2.25;;;8.00;99.90;;;;;;5094930;28;20213;-65
2022/11/05 05:14:39;;;;;;;3.05;2.30;;;8.00;99.90;;;;;;5094377;28;20262;-66
2022/11/05 05:17:06;;;;;;;2.83;2.00;;;8.00;99.90;;;;;;5094968;28;20189;-65
2022/11/05 05:21:37;;;;;;;2.72;1.73;;;7.90;99.90;;;;;;5094062;28;20189;-65
2022/11/05 05:22:20;;;;;;;3.03;1.70;;;8.00;99.90;;;;;;5095153;28;20177;-65
2022/11/05 05:24:49;;;;;;;5.35;1.83;;;8.00;99.90;;;;;;5094202;28;20245;-67
2022/11/05 05:27:16;;;;;;;3.30;1.80;;;8.10;99.90;;;;;;5094699;28;20706;-65
2022/11/05 05:29:44;;;;;;;2.60;1.80;;;8.10;99.90;;;;;;5094167;28;20655;-66
2022/11/05 05:32:11;;;;;;;2.70;1.92;;;8.20;99.90;;;;;;5094699;28;20611;-65
2022/11/05 05:34:38;;;;;;;2.45;1.70;;;8.20;99.90;;;;;;5094315;28;20181;-66
2022/11/05 05:37:06;;;;;;;3.60;1.65;;;8.30;99.90;;;;;;5094529;28;20184;-66
2022/11/05 05:39:33;;;;;;;2.85;1.60;;;8.30;99.90;;;;;;5093985;28;20185;-65
2022/11/05 05:42:02;;;;;;;3.03;2.00;;;8.40;99.90;;;;;;5094461;28;20657;-65
2022/11/05 05:44:35;;;;;;;3.58;1.15;;;8.40;99.90;;;;;;5093970;28;20188;-66
2022/11/05 05:47:02;;;;;;;3.30;1.70;;;8.40;99.90;;;;;;5094600;28;20586;-66
2022/11/05 05:49:30;;;;;;;2.33;1.33;;;8.40;99.90;;;;;;5094212;28;20189;-65
2022/11/05 05:51:57;;;;;;;2.38;1.30;;;8.40;99.90;;;;;;5094083;28;20304;-66
2022/11/05 05:54:24;;;;;;;2.42;1.45;;;8.40;99.90;;;;;;5093769;28;20185;-66
2022/11/05 05:56:51;;;;;;;2.97;1.90;;;8.40;99.90;;;;;;5094307;28;20230;-67
2022/11/05 05:59:20;;;;;;;3.80;1.90;;;8.40;99.80;;;;;;5093728;28;20188;-66
2022/11/05 06:01:47;;;;;;;3.00;1.90;;;8.40;99.70;;;;;;5094291;28;20630;-65
2022/11/05 06:04:14;;;;;;;3.42;2.30;;;8.50;99.70;;;;;;5093968;28;20193;-66
2022/11/05 06:06:45;;;;;;;2.88;1.95;;;8.50;99.60;;;;;;5094119;28;20184;-66
2022/11/05 06:09:13;;;;;;;4.45;2.00;;;8.40;99.20;;;;;;5093612;28;20291;-66
2022/11/05 06:11:41;;;;;;;3.33;1.75;;;8.40;99.30;;;;;;5093741;28;20670;-66
2022/11/05 06:14:11;;;;;;;2.40;1.40;;;8.50;99.30;;;;;;5093848;28;20627;-65
2022/11/05 06:16:40;;;;;;;5.80;1.45;;;8.50;99.30;;;;;;5093665;28;20192;-65
2022/11/05 06:19:07;;;;;;;3.35;1.42;;;8.40;99.20;;;;;;5093941;28;20189;-65
2022/11/05 06:21:36;;;;;;;3.42;1.75;;;8.40;99.30;;;;;;5093618;28;20181;-65
2022/11/05 06:24:04;;;;;;;2.70;2.20;;;8.40;99.00;;;;;;5093923;28;20262;-66
2022/11/05 06:26:31;;;;;;;3.80;3.00;;;8.40;99.10;;;;;;5093064;28;20295;-66
2022/11/05 06:28:59;;;;;;;5.78;1.70;;;8.40;99.00;;;;;;5093548;28;20218;-65
2022/11/05 06:31:26;;;;;;;2.80;1.98;;;8.30;98.80;;;;;;5092449;28;20604;-65
2022/11/05 06:33:54;;;;;;;3.38;1.50;;;8.40;98.90;;;;;;5093575;28;20181;-66
2022/11/05 06:36:22;;;;;;;2.60;1.73;;;8.40;98.90;;;;;;5093330;28;20189;-66
2022/11/05 06:38:49;;;;;;;2.53;1.50;;;8.40;98.90;;;;;;5093505;28;20193;-65
2022/11/05 06:41:16;;;;;;;3.53;1.67;;;8.40;98.90;;;;;;5092787;28;20185;-65
2022/11/05 06:43:43;;;;;;;2.35;1.35;;;8.40;98.90;;;;;;5092807;28;20293;-66
2022/11/05 06:46:11;;;;;;;2.22;1.55;;;8.40;98.80;;;;;;5093255;28;20255;-65
2022/11/05 06:48:38;;;;;;;1.70;1.00;;;8.40;99.00;;;;;;5093383;28;20192;-65
2022/11/05 06:51:08;;;;;;;1.98;1.20;;;8.40;99.10;;;;;;5092715;28;20322;-66
2022/11/05 06:53:36;;;;;;;2.00;0.98;;;8.40;98.90;;;;;;5093510;28;20185;-65
2022/11/05 06:56:04;;;;;;;1.88;1.17;;;8.40;98.80;;;;;;5092923;28;20231;-66
2022/11/05 06:58:31;;;;;;;2.08;1.35;;;8.50;98.70;;;;;;5093333;28;20189;-65
2022/11/05 07:01:01;;;;;;;2.00;1.08;;;8.50;98.70;;;;;;5092433;28;20217;-66
2022/11/05 07:03:29;;;;;;;2.45;1.40;;;8.50;98.80;;;;;;5093175;28;20704;-65
2022/11/05 07:05:59;;;;;;;2.38;1.15;;;8.50;98.60;;;;;;5092704;28;20177;-65
2022/11/05 07:08:30;;;;;;;2.80;1.48;;;8.50;98.50;;;;;;5092658;28;20272;-65
2022/11/05 07:10:59;;;;;;;2.53;1.20;;;8.50;98.60;;;;;;5092717;28;20502;-65
2022/11/05 07:13:26;;;;;;;2.40;1.80;;;8.60;98.70;;;;;;5092983;28;20193;-65
2022/11/05 07:15:54;;;;;;;2.40;1.58;;;8.60;98.40;;;;;;5092768;28;20264;-66
2022/11/05 07:18:21;;;;;;;2.78;2.30;;;8.60;98.40;;;;;;5092975;28;20185;-65
2022/11/05 07:20:49;;;;;;;3.05;2.50;;;8.60;98.30;;;;;;5092858;28;20189;-65
2022/11/05 07:23:16;;;;;;;2.33;1.38;;;8.60;98.30;;;;;;5092902;28;20185;-65
2022/11/05 07:25:45;;;;;;;3.47;2.60;;;8.60;98.20;;;;;;5091706;28;20180;-65
2022/11/05 07:28:13;;;;;;;3.20;2.88;;;8.60;98.00;;;;;;5090974;28;20184;-67
2022/11/05 07:30:41;;;;;;;4.82;3.20;;;8.70;98.20;;;;;;5089271;28;20181;-66
2022/11/05 07:33:08;;;;;;;4.30;3.20;;;8.70;97.70;;;;;;5091076;28;20213;-66
2022/11/05 07:35:36;;;;;;;3.42;2.80;;;8.60;97.90;;;;;;5090799;28;20197;-65
2022/11/05 07:38:03;;;;;;;5.10;2.72;;;8.60;98.20;;;;;;5091150;28;20212;-65
2022/11/05 07:40:34;;;;;;;4.10;2.10;;;8.70;98.30;;;;;;5089873;28;20185;-68
2022/11/05 07:43:03;;;;;;;2.80;1.75;;;8.70;98.40;;;;;;5091909;28;20230;-70
2022/11/05 07:45:33;;;;;;;2.17;1.50;;;8.80;98.40;;;;;;5093278;28;20631;-66
2022/11/05 07:48:02;;;;;;;2.65;1.48;;;8.80;98.50;;;;;;5093990;28;20185;-66
2022/11/05 07:50:34;;;;;;;1.88;1.10;;;8.90;98.60;;;;;;5094652;28;20512;-66
2022/11/05 07:53:05;;;;;;;6.18;1.13;;;9.00;98.50;;;;;;5095003;28;20299;-65
2022/11/05 07:55:33;;;;;;;2.13;1.17;;;9.10;98.40;;;;;;5094814;28;20192;-65
2022/11/05 07:58:00;;;;;;;2.20;1.10;;;9.10;98.30;;;;;;5095049;28;20565;-65
2022/11/05 08:00:29;;;;;;;2.10;1.15;;;9.10;98.00;;;;;;5094833;28;20188;-66
2022/11/05 08:02:58;;;;;;;3.97;1.70;;;9.10;97.50;;;;;;5094580;28;20262;-65
2022/11/05 08:05:25;;;;;;;2.75;2.40;;;9.10;97.40;;;;;;5094806;28;20184;-66
2022/11/05 08:07:54;;;;;;;4.05;3.00;;;9.10;97.30;;;;;;5094890;28;20542;-66
2022/11/05 08:10:21;;;;;;;4.40;3.05;;;9.20;97.20;;;;;;5094386;28;20230;-67
2022/11/05 08:12:49;;;;;;;3.15;2.17;;;9.20;97.30;;;;;;5094697;28;20235;-66
2022/11/05 08:15:17;;;;;;;3.60;1.67;;;9.20;96.70;;;;;;5094457;28;20653;-66
2022/11/05 08:17:45;;;;;;;2.50;1.40;;;9.30;97.20;;;;;;5090953;28;20193;-66
2022/11/05 08:20:13;;;;;;;3.05;1.48;;;9.50;97.20;;;;;;5092848;28;20188;-68
2022/11/05 08:22:43;;;;;;;2.33;1.40;;;9.60;97.70;;;;;;5093523;28;20192;-65
2022/11/05 08:25:11;;;;;;;5.30;2.60;;;9.70;97.80;;;;;;5093003;28;20193;-65
2022/11/05 08:27:38;;;;;;;14.80;1.50;;;9.90;97.80;;;;;;5093741;28;20304;-66
2022/11/05 08:30:07;;;;;;;2.25;1.20;;;10.10;96.70;;;;;;5093198;28;20649;-65
2022/11/05 08:32:35;;;;;;;2.58;1.45;;;10.30;96.10;;;;;;5094267;28;20260;-65
2022/11/05 08:35:04;;;;;;;2.15;1.30;;;10.50;96.00;;;;;;5093972;28;20503;-65
2022/11/05 08:37:31;;;;;;;2.22;1.17;;;10.60;95.40;;;;;;5093828;28;20225;-65
2022/11/05 08:39:58;;;;;;;2.65;1.80;;;10.70;94.40;;;;;;5093725;28;20189;-65
2022/11/05 08:42:26;;;;;;;2.63;1.17;;;10.90;94.60;;;;;;5094598;28;20572;-65
2022/11/05 08:44:53;;;;;;;2.70;1.58;;;11.10;94.70;;;;;;5093744;28;20181;-65
2022/11/05 08:47:20;;;;;;;2.30;1.30;;;11.30;94.50;;;;;;5093771;28;20684;-65
2022/11/05 08:49:47;;;;;;;1.92;0.93;;;11.70;94.70;;;;;;5093703;28;20181;-66
2022/11/05 08:52:16;;;;;;;2.28;1.27;;;12.20;94.00;;;;;;5093962;28;20275;-65
2022/11/05 08:54:43;;;;;;;2.30;1.10;;;12.50;92.00;;;;;;5093370;28;20214;-67
2022/11/05 08:57:10;;;;;;;1.83;1.00;;;12.60;91.20;;;;;;5089622;28;20474;-65
2022/11/05 08:59:37;;;;;;;2.60;1.17;;;12.70;90.30;;;;;;5094182;28;20222;-66
2022/11/05 09:02:04;;;;;;;2.57;1.23;;;12.80;90.00;;;;;;5094483;28;20525;-66
2022/11/05 09:04:31;;;;;;;1.73;0.90;;;13.00;88.80;;;;;;5094105;28;20519;-67
2022/11/05 09:06:58;;;;;;;2.00;0.93;;;13.10;87.20;;;;;;5089201;28;20903;-66
2022/11/05 09:09:26;;;;;;;2.27;1.23;;;13.10;86.40;;;;;;5093945;28;20492;-67
2022/11/05 09:11:53;;;;;;;1.97;1.17;;;13.00;84.50;;;;;;5090828;28;20607;-66
2022/11/05 09:14:20;;;;;;;2.30;1.30;;;13.00;84.30;;;;;;5093006;28;20434;-67
2022/11/05 09:16:47;;;;;;;2.00;1.10;;;13.00;84.60;;;;;;5092038;28;20426;-66
2022/11/05 09:19:14;;;;;;;1.90;0.90;;;13.10;85.10;;;;;;5092404;28;20796;-66
2022/11/05 09:21:41;;;;;;;3.10;0.97;;;13.40;85.30;;;;;;5092877;28;20978;-65
2022/11/05 09:24:08;;;;;;;3.20;1.10;;;13.50;82.00;;;;;;5092835;28;20485;-66
2022/11/05 09:26:36;;;;;;;2.27;1.20;;;13.60;81.30;;;;;;5092739;28;20463;-66
2022/11/05 09:29:03;;;;;;;2.10;1.00;;;13.70;80.50;;;;;;5092412;28;20893;-66
2022/11/05 09:31:30;;;;;;;1.70;0.80;;;13.70;79.60;;;;;;5092406;28;20473;-66
2022/11/05 09:33:57;;;;;;;1.90;0.87;;;13.80;78.80;;;;;;5093307;28;20470;-66
2022/11/05 09:36:24;;;;;;;2.47;0.60;;;14.10;79.70;;;;;;5091802;28;20451;-65
2022/11/05 09:38:51;;;;;;;1.97;0.60;;;14.40;77.90;;;;;;5093748;28;20470;-66
2022/11/05 09:41:29;;;;;;;2.40;0.90;;;14.50;74.20;;;;;;5093128;28;20463;-68
2022/11/05 09:44:00;;;;;;;2.10;1.00;;;14.60;73.80;;;;;;5092844;28;20461;-66
2022/11/05 09:46:40;;;;;;;2.10;0.73;;;14.50;71.40;;;;;;5092390;28;20524;-66
2022/11/05 09:49:25;;;;;;;2.17;1.20;;;14.30;69.80;;;;;;5092765;28;20435;-66
2022/11/05 09:51:54;;;;;;;1.93;0.83;;;14.10;71.20;;;;;;5091446;28;20539;-70
2022/11/05 09:54:27;;;;;;;1.60;0.70;;;13.80;69.80;;;;;;5092452;28;20426;-68
2022/11/05 09:56:55;;;;;;;2.50;0.90;;;13.70;71.60;;;;;;5092066;28;20440;-66
2022/11/05 09:59:27;;;;;;;1.90;0.80;;;13.60;72.90;;;;;;5092288;28;20434;-67
2022/11/05 10:02:00;;;;;;;5.20;0.80;;;13.60;72.50;;;;;;5091580;28;20462;-66
2022/11/05 10:04:29;;;;;;;2.27;0.90;;;13.60;73.40;;;;;;5092603;28;20446;-65
2022/11/05 10:07:00;;;;;;;2.67;1.10;;;13.50;73.70;;;;;;5086256;28;20430;-66
2022/11/05 10:09:32;;;;;;;2.10;0.70;;;13.40;73.70;;;;;;5092277;28;20958;-66
2022/11/05 10:12:05;;;;;;;1.80;1.00;;;13.30;73.40;;;;;;5092323;28;20497;-67
2022/11/05 10:14:38;;;;;;;2.30;0.90;;;13.10;72.80;;;;;;5088351;28;20426;-65
2022/11/05 10:17:10;;;;;;;1.80;0.90;;;12.90;73.30;;;;;;5092592;28;20465;-67
2022/11/05 10:19:43;;;;;;;2.70;0.90;;;12.80;74.30;;;;;;5091787;28;20430;-65
2022/11/05 10:22:15;;;;;;;2.27;1.00;;;12.70;75.20;;;;;;5091029;28;20443;-66
2022/11/05 10:24:45;;;;;;;2.00;0.90;;;12.60;75.80;;;;;;5091300;28;20442;-66
2022/11/05 10:27:17;;;;;;;2.92;0.90;;;12.60;76.90;;;;;;5087432;28;20461;-66
2022/11/05 10:29:46;;;;;;;2.10;1.00;;;12.50;77.20;;;;;;5091973;28;20291;-66
2022/11/05 10:32:23;;;;;;;2.30;0.90;;;12.40;77.70;;;;;;5090194;28;20833;-66
2022/11/05 10:34:51;;;;;;;2.50;1.00;;;12.40;78.60;;;;;;5088709;28;20518;-67
2022/11/05 10:37:21;;;;;;;2.20;1.03;;;12.40;78.90;;;;;;5092216;28;20441;-65
2022/11/05 10:39:49;;;;;;;2.33;1.07;;;12.30;79.10;;;;;;5091510;28;20433;-67
2022/11/05 10:42:49;;;;;;;2.63;0.83;;;12.20;79.40;;;;;;5090877;28;20911;-65
2022/11/05 10:45:28;;;;;;;2.03;1.10;;;12.10;80.10;;;;;;5088408;28;20536;-66
2022/11/05 10:48:05;;;;;;;1.90;0.80;;;11.90;80.10;;;;;;5090888;28;20440;-66
2022/11/05 10:50:32;;;;;;;2.00;1.10;;;11.80;80.30;;;;;;5089669;28;20444;-65
2022/11/05 10:53:02;;;;;;;2.17;1.25;;;11.60;80.90;;;;;;5091508;28;20256;-66
2022/11/05 10:55:36;;;;;;;2.30;1.10;;;11.50;81.80;;;;;;5090486;28;20191;-66
2022/11/05 10:58:18;;;;;;;2.40;1.27;;;11.40;82.50;;;;;;5091347;28;20529;-65
2022/11/05 11:01:01;;;;;;;1.90;0.93;;;11.40;83.20;;;;;;5087575;28;20490;-65
2022/11/05 11:03:39;;;;;;;2.17;1.20;;;11.40;83.40;;;;;;5090125;28;20633;-66
2022/11/05 11:06:22;;;;;;;2.70;1.33;;;11.40;83.60;;;;;;5091329;28;20194;-65
2022/11/05 11:08:49;;;;;;;2.00;0.98;;;11.50;83.90;;;;;;5088186;28;20222;-65
2022/11/05 11:11:28;;;;;;;2.42;1.17;;;11.50;84.10;;;;;;5091097;28;20191;-65
2022/11/05 11:14:04;;;;;;;2.42;1.20;;;11.60;84.30;;;;;;5091245;28;20217;-66
2022/11/05 11:16:37;;;;;;;2.20;1.10;;;11.60;83.80;;;;;;5088798;28;20190;-65
2022/11/05 11:19:30;;;;;;;2.25;1.20;;;11.70;84.00;;;;;;5090912;28;20643;-66
2022/11/05 11:22:21;;;;;;;2.25;0.80;;;11.70;84.10;;;;;;5096000;28;20628;-66
2022/11/05 11:24:52;;;;;;;2.00;0.73;;;11.80;83.90;;;;;;5090569;28;20246;-67
2022/11/05 11:27:23;;;;;;;2.10;1.20;;;11.80;83.10;;;;;;5094040;28;20224;-67
2022/11/05 11:29:57;;;;;;;1.88;0.80;;;11.70;82.70;;;;;;5092346;28;20196;-66
2022/11/05 11:32:35;;;;;;;1.85;0.90;;;11.70;82.80;;;;;;5093176;28;20271;-66
2022/11/05 11:35:03;;;;;;;2.50;0.80;;;11.70;82.70;;;;;;5092546;28;20538;-65
2022/11/05 11:37:33;;;;;;;1.63;0.70;;;11.60;81.80;;;;;;5091839;28;20278;-66
2022/11/05 11:40:05;;;;;;;2.40;0.88;;;11.40;81.50;;;;;;5096307;28;20193;-65
2022/11/05 11:42:35;;;;;;;2.08;0.77;;;11.40;81.90;;;;;;5092858;28;20186;-66
2022/11/05 11:45:07;;;;;;;1.70;0.90;;;11.40;82.00;;;;;;5097054;28;20192;-65
2022/11/05 11:47:42;;;;;;;1.70;0.65;;;11.50;81.60;;;;;;5094235;28;20247;-66
2022/11/05 11:50:34;;;;;;;1.77;0.70;;;11.60;81.30;;;;;;5092096;28;20192;-66
2022/11/05 11:53:28;;;;;;;1.83;0.80;;;11.70;81.80;;;;;;5091585;28;20570;-67
2022/11/05 11:56:04;;;;;;;1.60;0.70;;;11.80;81.10;;;;;;5092882;28;20187;-66
2022/11/05 11:58:43;;;;;;;1.60;0.60;;;11.90;80.20;;;;;;5094171;28;20259;-65
2022/11/05 12:01:34;;;;;;;1.67;0.75;;;11.90;78.80;;;;;;5093641;28;20182;-67
2022/11/05 12:04:23;;;;;;;2.10;0.90;;;11.90;78.40;;;;;;5095123;28;20692;-66
2022/11/05 12:07:01;;;;;;;1.93;0.90;;;11.90;78.60;;;;;;5095494;28;20211;-66
2022/11/05 12:09:43;;;;;;;1.70;0.90;;;12.00;79.10;;;;;;5095144;28;20515;-66
2022/11/05 12:12:13;;;;;;;2.45;1.10;;;12.00;78.50;;;;;;5092511;28;20206;-66
2022/11/05 12:14:48;;;;;;;2.40;1.17;;;12.00;78.80;;;;;;5094263;28;20235;-65
2022/11/05 12:17:37;;;;;;;2.40;0.90;;;12.10;78.00;;;;;;5095931;28;20499;-67
2022/11/05 12:20:25;;;;;;;2.30;0.93;;;12.20;78.40;;;;;;5085618;28;20440;-66
2022/11/05 12:23:20;;;;;;;2.33;1.07;;;12.50;79.30;;;;;;5088932;28;20476;-67
2022/11/05 12:25:57;;;;;;;2.23;1.00;;;12.60;77.50;;;;;;5086237;28;21033;-66
2022/11/05 12:28:56;;;;;;;3.80;1.10;;;12.60;75.60;;;;;;5088810;28;20437;-66
2022/11/05 12:31:33;;;;;;;2.10;1.13;;;12.50;75.00;;;;;;5091612;28;20491;-67
2022/11/05 12:34:12;;;;;;;2.53;1.10;;;12.40;74.70;;;;;;5090368;28;20884;-69
2022/11/05 12:36:56;;;;;;;2.13;0.90;;;12.30;75.00;;;;;;5089597;28;21397;-66
2022/11/05 12:39:43;;;;;;;2.67;1.20;;;12.20;75.10;;;;;;5093727;28;20444;-67
2022/11/05 12:42:23;;;;;;;2.23;0.90;;;12.20;74.70;;;;;;5095838;28;20508;-66
2022/11/05 12:45:02;;;;;;;2.43;1.00;;;12.10;75.90;;;;;;5097357;28;20906;-68
2022/11/05 12:47:53;;;;;;;1.80;0.80;;;12.10;75.90;;;;;;5095547;28;20429;-67
2022/11/05 12:50:28;;;;;;;2.03;1.07;;;12.10;76.60;;;;;;5097036;28;20473;-67
2022/11/05 12:53:28;;;;;;;1.90;0.70;;;12.20;77.30;;;;;;5095752;28;20501;-66
2022/11/05 12:55:59;;;;;;;1.90;1.00;;;12.30;77.30;;;;;;5096073;28;20487;-66
2022/11/05 12:58:32;;;;;;;2.27;1.17;;;12.40;77.50;;;;;;5095179;28;20469;-67
2022/11/05 13:01:04;;;;;;;3.30;1.23;;;12.40;75.60;;;;;;5099826;28;20488;-66
2022/11/05 13:03:40;;;;;;;2.37;0.87;;;12.40;74.30;;;;;;5094326;28;20450;-67
2022/11/05 13:06:12;;;;;;;1.90;1.10;;;12.40;74.10;;;;;;5095025;28;20433;-66
2022/11/05 13:08:46;;;;;;;2.40;1.20;;;12.30;73.70;;;;;;5095156;28;20464;-66
2022/11/05 13:11:21;;;;;;;3.87;2.17;;;12.20;73.90;;;;;;5098954;28;20484;-66
2022/11/05 13:13:59;;;;;;;1.70;0.80;;;12.10;74.60;;;;;;5093187;28;20481;-67
2022/11/05 13:16:30;;;;;;;2.30;0.90;;;12.00;75.30;;;;;;5095499;28;20442;-66
2022/11/05 13:19:04;;;;;;;2.77;1.20;;;12.00;75.50;;;;;;5096041;28;20473;-66
2022/11/05 13:21:32;;;;;;;2.00;1.00;;;12.00;76.00;;;;;;5091591;28;20923;-66
2022/11/05 13:24:05;;;;;;;5.90;1.27;;;11.90;76.30;;;;;;5098563;28;20945;-66
2022/11/05 13:26:38;;;;;;;6.60;0.93;;;11.80;75.90;;;;;;5093040;28;20503;-66
2022/11/05 13:29:10;;;;;;;2.60;1.40;;;11.80;76.20;;;;;;5094699;28;20485;-66
2022/11/05 13:31:42;;;;;;;2.53;0.93;;;11.80;76.60;;;;;;5098371;28;20900;-66
2022/11/05 13:34:12;;;;;;;2.53;1.20;;;11.80;76.80;;;;;;5100149;28;20502;-65
2022/11/05 13:39:41;;;;;;;2.05;1.15;;;11.80;76.90;;;;;;5097464;28;20781;-66
2022/11/05 13:42:42;;;;;;;1.70;0.90;;;11.70;76.70;;;;;;5103480;28;20291;-66
2022/11/05 13:45:34;;;;;;;1.67;0.80;;;11.60;76.70;;;;;;5095844;28;20439;-66
2022/11/05 13:48:33;;;;;;;2.30;1.13;;;11.60;77.40;;;;;;5095151;28;20441;-66
2022/11/05 13:51:16;;;;;;;1.90;1.20;;;11.50;77.90;;;;;;5060268;28;20208;-66
2022/11/05 13:54:25;;;;;;;1.92;1.15;;;11.50;78.50;;;;;;5097158;28;20244;-66
2022/11/05 13:57:07;;;;;;;2.10;1.40;;;11.50;78.90;;;;;;5103921;27;20182;-67
2022/11/05 13:59:58;;;;;;;4.13;2.60;;;11.50;79.20;;;;;;5093564;28;20439;-66
2022/11/05 14:02:36;;;;;;;3.80;2.17;;;11.40;79.50;;;;;;5090059;28;20465;-72
2022/11/05 14:05:05;;;;;;;3.67;2.07;;;11.40;79.00;;;;;;5096408;28;20472;-67